Choibalsan, Mongolia
Current Conditions -  °F | °C
As of 10:00 PM on Monday 26 Jan 2015 (Local Time) from UIAA Reporting Station
Clear Clear  
Wind Chill: -15°   Ceiling: Unl
Heat Index: -2°   Visibility: 6mi
Dew Point: -13°   Wind: 7mph
Humidity: 60%   Direction: 220°SW
Pressure: 30.42"   Gusts: NA
Location:  48.06°N, 114.51°E
Report Text: UIAA 261400Z 22003MPS 9999 SKC M19/M25 Q1030 NOSIG RMK QFE71329450160
Loading
Personal Weather Stations






























Interactive Weather Map New forecast layout! Learn more

10-Day Weather Forecast

Advertisements
Track Severe Weather on mobile